sensor_id;sensor_type;location;lat;lon;timestamp;P1;durP1;ratioP1;P2;durP2;ratioP2
12593;SDS011;6362;50.208;9.182;2023-02-15T00:01:22;18.60;;;10.00;;
12593;SDS011;6362;50.208;9.182;2023-02-15T00:03:48;17.58;;;9.50;;
12593;SDS011;6362;50.208;9.182;2023-02-15T00:06:14;15.60;;;9.55;;
12593;SDS011;6362;50.208;9.182;2023-02-15T00:08:40;16.70;;;9.13;;
12593;SDS011;6362;50.208;9.182;2023-02-15T00:11:06;14.75;;;8.70;;
12593;SDS011;6362;50.208;9.182;2023-02-15T00:13:33;17.70;;;10.27;;
12593;SDS011;6362;50.208;9.182;2023-02-15T00:16:01;17.20;;;10.68;;
12593;SDS011;6362;50.208;9.182;2023-02-15T00:18:28;17.98;;;10.43;;
12593;SDS011;6362;50.208;9.182;2023-02-15T00:20:53;17.73;;;10.20;;
12593;SDS011;6362;50.208;9.182;2023-02-15T00:23:18;19.33;;;10.93;;
12593;SDS011;6362;50.208;9.182;2023-02-15T00:25:44;21.92;;;10.30;;
12593;SDS011;6362;50.208;9.182;2023-02-15T00:28:09;22.02;;;11.75;;
12593;SDS011;6362;50.208;9.182;2023-02-15T00:30:35;21.13;;;11.60;;
12593;SDS011;6362;50.208;9.182;2023-02-15T00:33:00;20.10;;;10.68;;
12593;SDS011;6362;50.208;9.182;2023-02-15T00:35:25;20.17;;;10.88;;
12593;SDS011;6362;50.208;9.182;2023-02-15T00:37:51;20.13;;;10.38;;
12593;SDS011;6362;50.208;9.182;2023-02-15T00:40:17;20.80;;;11.23;;
12593;SDS011;6362;50.208;9.182;2023-02-15T00:42:43;23.48;;;11.48;;
12593;SDS011;6362;50.208;9.182;2023-02-15T00:45:08;22.45;;;11.63;;
12593;SDS011;6362;50.208;9.182;2023-02-15T00:47:34;19.88;;;11.25;;
12593;SDS011;6362;50.208;9.182;2023-02-15T00:49:59;19.45;;;11.70;;
12593;SDS011;6362;50.208;9.182;2023-02-15T00:52:25;25.25;;;12.10;;
12593;SDS011;6362;50.208;9.182;2023-02-15T00:54:50;21.70;;;11.80;;
12593;SDS011;6362;50.208;9.182;2023-02-15T00:57:16;22.45;;;11.50;;
12593;SDS011;6362;50.208;9.182;2023-02-15T00:59:41;21.33;;;11.80;;
12593;SDS011;6362;50.208;9.182;2023-02-15T01:02:06;21.08;;;10.57;;
12593;SDS011;6362;50.208;9.182;2023-02-15T01:04:32;21.45;;;11.40;;
12593;SDS011;6362;50.208;9.182;2023-02-15T01:06:57;21.42;;;11.65;;
12593;SDS011;6362;50.208;9.182;2023-02-15T01:09:23;20.27;;;10.40;;
12593;SDS011;6362;50.208;9.182;2023-02-15T01:11:48;22.40;;;11.32;;
12593;SDS011;6362;50.208;9.182;2023-02-15T01:14:13;21.33;;;11.25;;
12593;SDS011;6362;50.208;9.182;2023-02-15T01:16:39;20.15;;;11.02;;
12593;SDS011;6362;50.208;9.182;2023-02-15T01:19:05;21.67;;;10.65;;
12593;SDS011;6362;50.208;9.182;2023-02-15T01:21:31;18.50;;;10.07;;
12593;SDS011;6362;50.208;9.182;2023-02-15T01:23:59;20.95;;;10.27;;
12593;SDS011;6362;50.208;9.182;2023-02-15T01:26:25;21.08;;;10.20;;
12593;SDS011;6362;50.208;9.182;2023-02-15T01:28:51;23.67;;;12.40;;
12593;SDS011;6362;50.208;9.182;2023-02-15T01:31:17;21.20;;;10.88;;
12593;SDS011;6362;50.208;9.182;2023-02-15T01:33:45;20.13;;;10.73;;
12593;SDS011;6362;50.208;9.182;2023-02-15T01:36:12;20.98;;;10.52;;
12593;SDS011;6362;50.208;9.182;2023-02-15T01:38:38;19.02;;;10.32;;
12593;SDS011;6362;50.208;9.182;2023-02-15T01:41:05;19.55;;;10.40;;
12593;SDS011;6362;50.208;9.182;2023-02-15T01:43:49;19.67;;;10.13;;
12593;SDS011;6362;50.208;9.182;2023-02-15T01:46:18;19.80;;;10.10;;
12593;SDS011;6362;50.208;9.182;2023-02-15T01:48:48;20.55;;;10.18;;
12593;SDS011;6362;50.208;9.182;2023-02-15T01:51:19;22.33;;;10.55;;
12593;SDS011;6362;50.208;9.182;2023-02-15T01:53:50;19.52;;;10.02;;
12593;SDS011;6362;50.208;9.182;2023-02-15T01:56:20;19.65;;;10.35;;
12593;SDS011;6362;50.208;9.182;2023-02-15T01:58:49;20.27;;;9.60;;
12593;SDS011;6362;50.208;9.182;2023-02-15T02:01:17;18.67;;;10.07;;
12593;SDS011;6362;50.208;9.182;2023-02-15T02:06:26;16.25;;;8.75;;
12593;SDS011;6362;50.208;9.182;2023-02-15T02:08:52;14.98;;;8.60;;
12593;SDS011;6362;50.208;9.182;2023-02-15T02:11:20;17.25;;;9.38;;
12593;SDS011;6362;50.208;9.182;2023-02-15T02:13:46;15.50;;;9.00;;
12593;SDS011;6362;50.208;9.182;2023-02-15T02:16:21;20.15;;;9.82;;
12593;SDS011;6362;50.208;9.182;2023-02-15T02:19:04;13.50;;;7.95;;
12593;SDS011;6362;50.208;9.182;2023-02-15T02:21:59;17.40;;;8.70;;
12593;SDS011;6362;50.208;9.182;2023-02-15T02:43:51;16.65;;;9.57;;
12593;SDS011;6362;50.208;9.182;2023-02-15T02:46:29;16.55;;;8.70;;
12593;SDS011;6362;50.208;9.182;2023-02-15T02:49:00;18.80;;;9.95;;
12593;SDS011;6362;50.208;9.182;2023-02-15T02:51:26;16.30;;;9.07;;
12593;SDS011;6362;50.208;9.182;2023-02-15T02:53:52;15.63;;;9.52;;
12593;SDS011;6362;50.208;9.182;2023-02-15T02:58:56;20.10;;;10.85;;
12593;SDS011;6362;50.208;9.182;2023-02-15T03:01:38;18.48;;;9.27;;
12593;SDS011;6362;50.208;9.182;2023-02-15T03:04:09;19.67;;;10.43;;
12593;SDS011;6362;50.208;9.182;2023-02-15T03:07:01;19.90;;;9.57;;
12593;SDS011;6362;50.208;9.182;2023-02-15T03:09:32;21.60;;;10.00;;
12593;SDS011;6362;50.208;9.182;2023-02-15T03:12:12;18.77;;;10.20;;
12593;SDS011;6362;50.208;9.182;2023-02-15T03:14:41;19.77;;;10.70;;
12593;SDS011;6362;50.208;9.182;2023-02-15T03:17:09;19.55;;;9.93;;
12593;SDS011;6362;50.208;9.182;2023-02-15T03:19:38;17.05;;;8.93;;
12593;SDS011;6362;50.208;9.182;2023-02-15T03:22:12;18.90;;;9.90;;
12593;SDS011;6362;50.208;9.182;2023-02-15T03:24:50;17.52;;;9.48;;
12593;SDS011;6362;50.208;9.182;2023-02-15T03:27:22;18.60;;;9.38;;
12593;SDS011;6362;50.208;9.182;2023-02-15T03:29:55;19.67;;;10.20;;
12593;SDS011;6362;50.208;9.182;2023-02-15T03:32:23;18.98;;;9.38;;
12593;SDS011;6362;50.208;9.182;2023-02-15T03:34:51;20.38;;;9.95;;
12593;SDS011;6362;50.208;9.182;2023-02-15T03:37:32;19.08;;;9.68;;
12593;SDS011;6362;50.208;9.182;2023-02-15T03:40:03;18.27;;;9.85;;
12593;SDS011;6362;50.208;9.182;2023-02-15T03:42:50;19.73;;;10.23;;
12593;SDS011;6362;50.208;9.182;2023-02-15T03:45:25;18.20;;;9.77;;
12593;SDS011;6362;50.208;9.182;2023-02-15T03:47:54;19.30;;;9.65;;
12593;SDS011;6362;50.208;9.182;2023-02-15T03:50:27;19.65;;;10.30;;
12593;SDS011;6362;50.208;9.182;2023-02-15T03:53:15;16.58;;;9.55;;
12593;SDS011;6362;50.208;9.182;2023-02-15T03:55:53;17.95;;;9.30;;
12593;SDS011;6362;50.208;9.182;2023-02-15T03:58:20;18.73;;;9.70;;
12593;SDS011;6362;50.208;9.182;2023-02-15T04:01:09;20.33;;;10.13;;
12593;SDS011;6362;50.208;9.182;2023-02-15T04:04:06;22.52;;;10.43;;
12593;SDS011;6362;50.208;9.182;2023-02-15T04:06:35;19.73;;;10.32;;
12593;SDS011;6362;50.208;9.182;2023-02-15T04:09:01;20.85;;;9.80;;
12593;SDS011;6362;50.208;9.182;2023-02-15T04:11:45;20.35;;;10.10;;
12593;SDS011;6362;50.208;9.182;2023-02-15T04:14:10;22.45;;;11.10;;
12593;SDS011;6362;50.208;9.182;2023-02-15T04:16:54;20.98;;;11.35;;
12593;SDS011;6362;50.208;9.182;2023-02-15T04:19:19;21.92;;;11.55;;
12593;SDS011;6362;50.208;9.182;2023-02-15T04:22:03;23.98;;;10.93;;
12593;SDS011;6362;50.208;9.182;2023-02-15T04:24:47;24.65;;;11.85;;
12593;SDS011;6362;50.208;9.182;2023-02-15T04:27:31;21.33;;;11.60;;
12593;SDS011;6362;50.208;9.182;2023-02-15T04:29:57;20.40;;;11.23;;
12593;SDS011;6362;50.208;9.182;2023-02-15T04:32:22;20.15;;;9.60;;
12593;SDS011;6362;50.208;9.182;2023-02-15T04:34:48;21.70;;;11.05;;
12593;SDS011;6362;50.208;9.182;2023-02-15T04:37:13;21.48;;;12.40;;
12593;SDS011;6362;50.208;9.182;2023-02-15T04:39:38;21.80;;;10.82;;
12593;SDS011;6362;50.208;9.182;2023-02-15T04:42:04;24.20;;;11.73;;
12593;SDS011;6362;50.208;9.182;2023-02-15T04:44:29;21.75;;;11.00;;
12593;SDS011;6362;50.208;9.182;2023-02-15T04:46:55;21.35;;;10.25;;
12593;SDS011;6362;50.208;9.182;2023-02-15T04:49:20;21.55;;;10.52;;
12593;SDS011;6362;50.208;9.182;2023-02-15T04:51:45;21.05;;;9.70;;
12593;SDS011;6362;50.208;9.182;2023-02-15T04:54:11;17.40;;;9.50;;
12593;SDS011;6362;50.208;9.182;2023-02-15T04:56:36;19.50;;;10.60;;
12593;SDS011;6362;50.208;9.182;2023-02-15T04:59:03;19.63;;;10.38;;
12593;SDS011;6362;50.208;9.182;2023-02-15T05:01:29;19.95;;;12.43;;
12593;SDS011;6362;50.208;9.182;2023-02-15T05:03:54;18.17;;;9.32;;
12593;SDS011;6362;50.208;9.182;2023-02-15T05:06:20;19.20;;;10.38;;
12593;SDS011;6362;50.208;9.182;2023-02-15T05:08:46;18.13;;;9.77;;
12593;SDS011;6362;50.208;9.182;2023-02-15T05:11:11;16.20;;;8.82;;
12593;SDS011;6362;50.208;9.182;2023-02-15T05:13:37;17.88;;;9.50;;
12593;SDS011;6362;50.208;9.182;2023-02-15T05:16:05;20.25;;;10.90;;
12593;SDS011;6362;50.208;9.182;2023-02-15T05:18:31;20.33;;;10.55;;
12593;SDS011;6362;50.208;9.182;2023-02-15T05:20:56;16.30;;;8.63;;
12593;SDS011;6362;50.208;9.182;2023-02-15T05:23:21;17.33;;;9.65;;
12593;SDS011;6362;50.208;9.182;2023-02-15T05:25:50;16.98;;;10.13;;
12593;SDS011;6362;50.208;9.182;2023-02-15T05:28:35;18.65;;;10.07;;
12593;SDS011;6362;50.208;9.182;2023-02-15T05:31:03;17.80;;;9.88;;
12593;SDS011;6362;50.208;9.182;2023-02-15T05:33:39;17.63;;;11.00;;
12593;SDS011;6362;50.208;9.182;2023-02-15T05:36:05;16.90;;;9.30;;
12593;SDS011;6362;50.208;9.182;2023-02-15T05:38:31;18.55;;;9.10;;
12593;SDS011;6362;50.208;9.182;2023-02-15T05:40:57;15.50;;;8.70;;
12593;SDS011;6362;50.208;9.182;2023-02-15T05:46:12;14.98;;;8.27;;
12593;SDS011;6362;50.208;9.182;2023-02-15T05:48:38;15.35;;;8.70;;
12593;SDS011;6362;50.208;9.182;2023-02-15T05:51:10;16.10;;;8.98;;
12593;SDS011;6362;50.208;9.182;2023-02-15T05:53:41;16.08;;;8.90;;
12593;SDS011;6362;50.208;9.182;2023-02-15T05:56:08;17.45;;;9.70;;
12593;SDS011;6362;50.208;9.182;2023-02-15T05:58:35;15.80;;;9.68;;
12593;SDS011;6362;50.208;9.182;2023-02-15T06:01:09;14.07;;;8.10;;
12593;SDS011;6362;50.208;9.182;2023-02-15T06:03:39;14.13;;;9.43;;
12593;SDS011;6362;50.208;9.182;2023-02-15T06:06:05;15.65;;;9.15;;
12593;SDS011;6362;50.208;9.182;2023-02-15T06:08:32;16.98;;;9.10;;
12593;SDS011;6362;50.208;9.182;2023-02-15T06:10:58;16.33;;;9.35;;
12593;SDS011;6362;50.208;9.182;2023-02-15T06:13:24;16.67;;;9.38;;
12593;SDS011;6362;50.208;9.182;2023-02-15T06:15:49;15.80;;;9.38;;
12593;SDS011;6362;50.208;9.182;2023-02-15T06:18:15;16.25;;;9.02;;
12593;SDS011;6362;50.208;9.182;2023-02-15T06:20:40;17.05;;;9.13;;
12593;SDS011;6362;50.208;9.182;2023-02-15T06:23:06;16.65;;;9.20;;
12593;SDS011;6362;50.208;9.182;2023-02-15T06:25:31;16.70;;;9.70;;
12593;SDS011;6362;50.208;9.182;2023-02-15T06:27:57;16.58;;;9.32;;
12593;SDS011;6362;50.208;9.182;2023-02-15T06:30:22;15.40;;;9.10;;
12593;SDS011;6362;50.208;9.182;2023-02-15T06:32:47;18.98;;;9.15;;
12593;SDS011;6362;50.208;9.182;2023-02-15T06:35:13;16.92;;;9.18;;
12593;SDS011;6362;50.208;9.182;2023-02-15T06:37:38;17.67;;;9.75;;
12593;SDS011;6362;50.208;9.182;2023-02-15T06:40:05;19.60;;;10.15;;
12593;SDS011;6362;50.208;9.182;2023-02-15T06:42:31;19.88;;;10.00;;
12593;SDS011;6362;50.208;9.182;2023-02-15T06:44:56;18.40;;;10.60;;
12593;SDS011;6362;50.208;9.182;2023-02-15T06:47:22;20.70;;;11.13;;
12593;SDS011;6362;50.208;9.182;2023-02-15T06:49:47;19.63;;;10.82;;
12593;SDS011;6362;50.208;9.182;2023-02-15T06:52:13;22.08;;;10.48;;
12593;SDS011;6362;50.208;9.182;2023-02-15T06:54:38;20.50;;;10.20;;
12593;SDS011;6362;50.208;9.182;2023-02-15T06:57:04;23.38;;;12.55;;
12593;SDS011;6362;50.208;9.182;2023-02-15T06:59:29;21.02;;;11.23;;
12593;SDS011;6362;50.208;9.182;2023-02-15T07:01:54;18.67;;;10.00;;
12593;SDS011;6362;50.208;9.182;2023-02-15T07:04:20;24.35;;;12.63;;
12593;SDS011;6362;50.208;9.182;2023-02-15T07:06:45;23.92;;;12.10;;
12593;SDS011;6362;50.208;9.182;2023-02-15T07:09:11;25.75;;;12.57;;
12593;SDS011;6362;50.208;9.182;2023-02-15T07:11:37;26.50;;;13.25;;
12593;SDS011;6362;50.208;9.182;2023-02-15T07:14:22;27.00;;;12.90;;
12593;SDS011;6362;50.208;9.182;2023-02-15T07:16:47;23.65;;;12.40;;
12593;SDS011;6362;50.208;9.182;2023-02-15T07:19:13;26.30;;;12.98;;
12593;SDS011;6362;50.208;9.182;2023-02-15T07:21:38;24.77;;;12.52;;
12593;SDS011;6362;50.208;9.182;2023-02-15T07:24:04;26.38;;;11.90;;
12593;SDS011;6362;50.208;9.182;2023-02-15T07:26:31;22.08;;;11.52;;
12593;SDS011;6362;50.208;9.182;2023-02-15T07:28:57;26.20;;;12.88;;
12593;SDS011;6362;50.208;9.182;2023-02-15T07:31:22;23.23;;;12.27;;
12593;SDS011;6362;50.208;9.182;2023-02-15T07:33:47;24.95;;;13.13;;
12593;SDS011;6362;50.208;9.182;2023-02-15T07:36:13;22.40;;;11.85;;
12593;SDS011;6362;50.208;9.182;2023-02-15T07:38:40;23.90;;;12.18;;
12593;SDS011;6362;50.208;9.182;2023-02-15T07:41:07;22.05;;;11.75;;
12593;SDS011;6362;50.208;9.182;2023-02-15T07:43:35;22.08;;;12.10;;
12593;SDS011;6362;50.208;9.182;2023-02-15T07:46:03;22.77;;;12.00;;
12593;SDS011;6362;50.208;9.182;2023-02-15T07:48:30;18.75;;;10.20;;
12593;SDS011;6362;50.208;9.182;2023-02-15T07:51:00;20.17;;;11.57;;
12593;SDS011;6362;50.208;9.182;2023-02-15T07:53:26;21.65;;;11.07;;
12593;SDS011;6362;50.208;9.182;2023-02-15T07:55:52;24.98;;;11.73;;
12593;SDS011;6362;50.208;9.182;2023-02-15T07:58:18;23.42;;;12.20;;
12593;SDS011;6362;50.208;9.182;2023-02-15T08:00:44;22.30;;;12.18;;
12593;SDS011;6362;50.208;9.182;2023-02-15T08:03:23;22.33;;;12.13;;
12593;SDS011;6362;50.208;9.182;2023-02-15T08:05:51;26.75;;;12.02;;
12593;SDS011;6362;50.208;9.182;2023-02-15T08:08:21;22.42;;;12.00;;
12593;SDS011;6362;50.208;9.182;2023-02-15T08:13:47;25.00;;;13.18;;
12593;SDS011;6362;50.208;9.182;2023-02-15T08:16:21;28.55;;;13.05;;
12593;SDS011;6362;50.208;9.182;2023-02-15T08:19:08;25.08;;;11.77;;
12593;SDS011;6362;50.208;9.182;2023-02-15T08:21:37;22.65;;;11.77;;
12593;SDS011;6362;50.208;9.182;2023-02-15T08:24:05;24.33;;;12.25;;
12593;SDS011;6362;50.208;9.182;2023-02-15T08:26:32;22.98;;;12.00;;
12593;SDS011;6362;50.208;9.182;2023-02-15T08:28:59;24.17;;;12.52;;
12593;SDS011;6362;50.208;9.182;2023-02-15T08:31:25;26.05;;;12.68;;
12593;SDS011;6362;50.208;9.182;2023-02-15T08:33:52;25.23;;;13.45;;
12593;SDS011;6362;50.208;9.182;2023-02-15T08:36:21;24.63;;;12.82;;
12593;SDS011;6362;50.208;9.182;2023-02-15T08:38:48;24.20;;;13.35;;
12593;SDS011;6362;50.208;9.182;2023-02-15T08:41:18;28.77;;;13.32;;
12593;SDS011;6362;50.208;9.182;2023-02-15T08:43:48;27.65;;;13.23;;
12593;SDS011;6362;50.208;9.182;2023-02-15T08:46:16;25.17;;;13.48;;
12593;SDS011;6362;50.208;9.182;2023-02-15T08:48:42;23.05;;;12.68;;
12593;SDS011;6362;50.208;9.182;2023-02-15T08:51:12;21.67;;;11.80;;
12593;SDS011;6362;50.208;9.182;2023-02-15T08:53:41;24.85;;;13.57;;
12593;SDS011;6362;50.208;9.182;2023-02-15T08:56:08;27.92;;;13.10;;
12593;SDS011;6362;50.208;9.182;2023-02-15T08:58:34;25.95;;;14.32;;
12593;SDS011;6362;50.208;9.182;2023-02-15T09:00:59;28.48;;;13.07;;
12593;SDS011;6362;50.208;9.182;2023-02-15T09:03:27;23.77;;;13.35;;
12593;SDS011;6362;50.208;9.182;2023-02-15T09:06:00;24.90;;;13.45;;
12593;SDS011;6362;50.208;9.182;2023-02-15T09:08:26;23.85;;;12.43;;
12593;SDS011;6362;50.208;9.182;2023-02-15T09:10:53;28.45;;;13.05;;
12593;SDS011;6362;50.208;9.182;2023-02-15T09:13:19;23.80;;;12.60;;
12593;SDS011;6362;50.208;9.182;2023-02-15T09:15:45;25.83;;;13.50;;
12593;SDS011;6362;50.208;9.182;2023-02-15T09:18:11;25.70;;;12.88;;
12593;SDS011;6362;50.208;9.182;2023-02-15T09:20:41;26.60;;;13.82;;
12593;SDS011;6362;50.208;9.182;2023-02-15T09:23:08;23.30;;;12.77;;
12593;SDS011;6362;50.208;9.182;2023-02-15T09:25:33;24.00;;;12.40;;
12593;SDS011;6362;50.208;9.182;2023-02-15T09:27:59;23.98;;;13.50;;
12593;SDS011;6362;50.208;9.182;2023-02-15T09:30:24;23.58;;;13.60;;
12593;SDS011;6362;50.208;9.182;2023-02-15T09:32:56;22.90;;;13.52;;
12593;SDS011;6362;50.208;9.182;2023-02-15T09:35:21;24.20;;;12.15;;
12593;SDS011;6362;50.208;9.182;2023-02-15T09:37:47;24.17;;;13.93;;
12593;SDS011;6362;50.208;9.182;2023-02-15T09:40:13;22.77;;;12.32;;
12593;SDS011;6362;50.208;9.182;2023-02-15T09:48:01;24.13;;;12.90;;
12593;SDS011;6362;50.208;9.182;2023-02-15T09:50:42;23.50;;;12.75;;
12593;SDS011;6362;50.208;9.182;2023-02-15T10:07:40;25.33;;;12.88;;
12593;SDS011;6362;50.208;9.182;2023-02-15T10:24:02;22.40;;;12.98;;
12593;SDS011;6362;50.208;9.182;2023-02-15T10:26:46;24.52;;;13.00;;
12593;SDS011;6362;50.208;9.182;2023-02-15T10:43:23;20.58;;;11.68;;
12593;SDS011;6362;50.208;9.182;2023-02-15T10:46:00;20.85;;;10.80;;
12593;SDS011;6362;50.208;9.182;2023-02-15T10:51:53;23.48;;;12.93;;
12593;SDS011;6362;50.208;9.182;2023-02-15T10:54:41;24.17;;;13.73;;
12593;SDS011;6362;50.208;9.182;2023-02-15T11:08:22;21.85;;;12.95;;
12593;SDS011;6362;50.208;9.182;2023-02-15T11:11:03;19.98;;;11.77;;
12593;SDS011;6362;50.208;9.182;2023-02-15T11:13:35;20.95;;;12.88;;
12593;SDS011;6362;50.208;9.182;2023-02-15T11:16:06;22.98;;;13.02;;
12593;SDS011;6362;50.208;9.182;2023-02-15T11:18:41;24.55;;;13.02;;
12593;SDS011;6362;50.208;9.182;2023-02-15T11:23:43;25.90;;;13.40;;
12593;SDS011;6362;50.208;9.182;2023-02-15T11:26:54;21.20;;;12.63;;
12593;SDS011;6362;50.208;9.182;2023-02-15T11:32:03;24.95;;;12.88;;
12593;SDS011;6362;50.208;9.182;2023-02-15T11:37:48;24.08;;;12.73;;
12593;SDS011;6362;50.208;9.182;2023-02-15T11:40:17;26.88;;;12.98;;
12593;SDS011;6362;50.208;9.182;2023-02-15T11:42:47;21.38;;;13.18;;
12593;SDS011;6362;50.208;9.182;2023-02-15T11:47:59;26.37;;;14.33;;
12593;SDS011;6362;50.208;9.182;2023-02-15T11:50:27;23.40;;;13.90;;
12593;SDS011;6362;50.208;9.182;2023-02-15T11:53:03;22.73;;;13.23;;
12593;SDS011;6362;50.208;9.182;2023-02-15T11:55:32;24.13;;;15.05;;
12593;SDS011;6362;50.208;9.182;2023-02-15T12:00:47;23.02;;;13.23;;
12593;SDS011;6362;50.208;9.182;2023-02-15T12:03:18;22.33;;;13.38;;
12593;SDS011;6362;50.208;9.182;2023-02-15T12:05:50;24.25;;;13.98;;
12593;SDS011;6362;50.208;9.182;2023-02-15T12:08:21;22.40;;;13.52;;
12593;SDS011;6362;50.208;9.182;2023-02-15T12:11:05;23.58;;;12.90;;
12593;SDS011;6362;50.208;9.182;2023-02-15T12:13:37;26.60;;;15.00;;
12593;SDS011;6362;50.208;9.182;2023-02-15T12:16:19;22.85;;;13.93;;
12593;SDS011;6362;50.208;9.182;2023-02-15T12:18:45;24.70;;;14.40;;
12593;SDS011;6362;50.208;9.182;2023-02-15T12:21:15;24.50;;;13.60;;
12593;SDS011;6362;50.208;9.182;2023-02-15T12:23:53;21.98;;;13.48;;
12593;SDS011;6362;50.208;9.182;2023-02-15T12:26:32;24.60;;;15.35;;
12593;SDS011;6362;50.208;9.182;2023-02-15T12:29:00;23.75;;;14.68;;
12593;SDS011;6362;50.208;9.182;2023-02-15T12:31:45;23.50;;;13.57;;
12593;SDS011;6362;50.208;9.182;2023-02-15T12:34:22;23.02;;;13.90;;
12593;SDS011;6362;50.208;9.182;2023-02-15T12:36:55;23.10;;;13.10;;
12593;SDS011;6362;50.208;9.182;2023-02-15T12:39:25;21.17;;;13.68;;
12593;SDS011;6362;50.208;9.182;2023-02-15T12:44:25;23.95;;;14.43;;
12593;SDS011;6362;50.208;9.182;2023-02-15T12:49:23;22.27;;;13.18;;
12593;SDS011;6362;50.208;9.182;2023-02-15T12:51:50;20.45;;;12.90;;
12593;SDS011;6362;50.208;9.182;2023-02-15T12:56:51;21.50;;;12.55;;
12593;SDS011;6362;50.208;9.182;2023-02-15T12:59:16;22.33;;;13.32;;
12593;SDS011;6362;50.208;9.182;2023-02-15T13:01:47;20.25;;;13.27;;
12593;SDS011;6362;50.208;9.182;2023-02-15T13:04:15;20.08;;;14.23;;
12593;SDS011;6362;50.208;9.182;2023-02-15T13:06:51;18.63;;;12.68;;
12593;SDS011;6362;50.208;9.182;2023-02-15T13:09:20;18.27;;;12.88;;
12593;SDS011;6362;50.208;9.182;2023-02-15T13:11:56;22.73;;;14.23;;
12593;SDS011;6362;50.208;9.182;2023-02-15T13:14:33;21.10;;;12.65;;
12593;SDS011;6362;50.208;9.182;2023-02-15T13:17:00;21.00;;;13.75;;
12593;SDS011;6362;50.208;9.182;2023-02-15T13:19:45;19.83;;;13.10;;
12593;SDS011;6362;50.208;9.182;2023-02-15T13:22:18;20.45;;;14.27;;
12593;SDS011;6362;50.208;9.182;2023-02-15T13:24:57;18.52;;;12.65;;
12593;SDS011;6362;50.208;9.182;2023-02-15T13:27:32;18.20;;;13.02;;
12593;SDS011;6362;50.208;9.182;2023-02-15T13:30:03;20.30;;;13.57;;
12593;SDS011;6362;50.208;9.182;2023-02-15T13:32:43;17.95;;;12.68;;
12593;SDS011;6362;50.208;9.182;2023-02-15T13:35:14;18.02;;;12.00;;
12593;SDS011;6362;50.208;9.182;2023-02-15T13:40:21;18.73;;;12.43;;
12593;SDS011;6362;50.208;9.182;2023-02-15T13:43:03;16.58;;;12.10;;
12593;SDS011;6362;50.208;9.182;2023-02-15T13:48:36;15.23;;;11.80;;
12593;SDS011;6362;50.208;9.182;2023-02-15T13:54:02;17.08;;;13.02;;
12593;SDS011;6362;50.208;9.182;2023-02-15T13:57:08;18.75;;;11.90;;
12593;SDS011;6362;50.208;9.182;2023-02-15T14:07:58;15.43;;;12.25;;
12593;SDS011;6362;50.208;9.182;2023-02-15T14:21:53;21.80;;;14.80;;
12593;SDS011;6362;50.208;9.182;2023-02-15T14:32:24;18.88;;;14.35;;
12593;SDS011;6362;50.208;9.182;2023-02-15T14:34:58;17.33;;;13.18;;
12593;SDS011;6362;50.208;9.182;2023-02-15T14:45:56;17.77;;;14.45;;
12593;SDS011;6362;50.208;9.182;2023-02-15T14:48:32;19.15;;;14.10;;
12593;SDS011;6362;50.208;9.182;2023-02-15T14:51:02;18.42;;;15.38;;
12593;SDS011;6362;50.208;9.182;2023-02-15T14:59:23;17.33;;;13.60;;
12593;SDS011;6362;50.208;9.182;2023-02-15T15:04:02;18.40;;;14.32;;
12593;SDS011;6362;50.208;9.182;2023-02-15T15:06:54;19.10;;;14.13;;
12593;SDS011;6362;50.208;9.182;2023-02-15T15:09:25;18.38;;;14.00;;
12593;SDS011;6362;50.208;9.182;2023-02-15T15:11:53;15.63;;;13.35;;
12593;SDS011;6362;50.208;9.182;2023-02-15T15:14:38;17.05;;;13.63;;
12593;SDS011;6362;50.208;9.182;2023-02-15T15:17:05;17.67;;;14.48;;
12593;SDS011;6362;50.208;9.182;2023-02-15T15:22:19;20.25;;;15.63;;
12593;SDS011;6362;50.208;9.182;2023-02-15T15:25:02;23.88;;;17.38;;
12593;SDS011;6362;50.208;9.182;2023-02-15T15:32:42;23.42;;;17.38;;
12593;SDS011;6362;50.208;9.182;2023-02-15T15:49:17;25.92;;;17.38;;
12593;SDS011;6362;50.208;9.182;2023-02-15T15:51:45;28.15;;;17.92;;
12593;SDS011;6362;50.208;9.182;2023-02-15T15:54:19;29.58;;;18.05;;
12593;SDS011;6362;50.208;9.182;2023-02-15T15:57:06;26.23;;;17.40;;
12593;SDS011;6362;50.208;9.182;2023-02-15T15:59:56;29.35;;;16.92;;
12593;SDS011;6362;50.208;9.182;2023-02-15T16:02:26;24.60;;;17.13;;
12593;SDS011;6362;50.208;9.182;2023-02-15T16:04:52;26.92;;;17.33;;
12593;SDS011;6362;50.208;9.182;2023-02-15T16:12:29;28.17;;;18.38;;
12593;SDS011;6362;50.208;9.182;2023-02-15T16:14:57;29.27;;;18.30;;
12593;SDS011;6362;50.208;9.182;2023-02-15T16:17:26;31.35;;;18.27;;
12593;SDS011;6362;50.208;9.182;2023-02-15T16:20:18;27.05;;;17.02;;
12593;SDS011;6362;50.208;9.182;2023-02-15T16:22:44;32.95;;;19.35;;
12593;SDS011;6362;50.208;9.182;2023-02-15T16:27:52;28.17;;;17.02;;
12593;SDS011;6362;50.208;9.182;2023-02-15T16:30:25;24.45;;;15.30;;
12593;SDS011;6362;50.208;9.182;2023-02-15T16:33:10;27.02;;;16.63;;
12593;SDS011;6362;50.208;9.182;2023-02-15T16:35:41;28.88;;;17.48;;
12593;SDS011;6362;50.208;9.182;2023-02-15T16:41:30;27.50;;;15.98;;
12593;SDS011;6362;50.208;9.182;2023-02-15T16:44:06;25.02;;;15.23;;
12593;SDS011;6362;50.208;9.182;2023-02-15T16:46:40;29.90;;;17.88;;
12593;SDS011;6362;50.208;9.182;2023-02-15T16:49:21;27.10;;;15.60;;
12593;SDS011;6362;50.208;9.182;2023-02-15T16:52:03;36.47;;;21.50;;
12593;SDS011;6362;50.208;9.182;2023-02-15T16:54:31;32.63;;;21.20;;
12593;SDS011;6362;50.208;9.182;2023-02-15T16:56:57;31.35;;;19.58;;
12593;SDS011;6362;50.208;9.182;2023-02-15T16:59:38;25.77;;;17.88;;
12593;SDS011;6362;50.208;9.182;2023-02-15T17:02:42;26.95;;;16.55;;
12593;SDS011;6362;50.208;9.182;2023-02-15T17:07:39;25.15;;;15.52;;
12593;SDS011;6362;50.208;9.182;2023-02-15T17:10:25;29.65;;;18.08;;
12593;SDS011;6362;50.208;9.182;2023-02-15T17:12:52;24.25;;;15.60;;
12593;SDS011;6362;50.208;9.182;2023-02-15T17:18:02;28.98;;;16.83;;
12593;SDS011;6362;50.208;9.182;2023-02-15T17:20:31;27.00;;;15.80;;
12593;SDS011;6362;50.208;9.182;2023-02-15T17:22:58;28.17;;;16.58;;
12593;SDS011;6362;50.208;9.182;2023-02-15T17:25:26;30.73;;;17.25;;
12593;SDS011;6362;50.208;9.182;2023-02-15T17:28:04;35.60;;;19.52;;
12593;SDS011;6362;50.208;9.182;2023-02-15T17:30:40;32.53;;;19.88;;
12593;SDS011;6362;50.208;9.182;2023-02-15T17:33:05;31.05;;;18.75;;
12593;SDS011;6362;50.208;9.182;2023-02-15T17:36:02;33.33;;;19.92;;
12593;SDS011;6362;50.208;9.182;2023-02-15T17:38:37;34.03;;;18.63;;
12593;SDS011;6362;50.208;9.182;2023-02-15T17:41:03;27.70;;;17.17;;
12593;SDS011;6362;50.208;9.182;2023-02-15T17:43:29;29.20;;;17.77;;
12593;SDS011;6362;50.208;9.182;2023-02-15T17:45:56;25.77;;;16.42;;
12593;SDS011;6362;50.208;9.182;2023-02-15T17:48:30;36.25;;;17.30;;
12593;SDS011;6362;50.208;9.182;2023-02-15T17:51:01;24.20;;;15.50;;
12593;SDS011;6362;50.208;9.182;2023-02-15T17:53:27;33.33;;;19.92;;
12593;SDS011;6362;50.208;9.182;2023-02-15T17:55:53;32.00;;;18.60;;
12593;SDS011;6362;50.208;9.182;2023-02-15T17:58:19;29.75;;;17.98;;
12593;SDS011;6362;50.208;9.182;2023-02-15T18:00:46;31.90;;;17.05;;
12593;SDS011;6362;50.208;9.182;2023-02-15T18:06:28;58.80;;;29.92;;
12593;SDS011;6362;50.208;9.182;2023-02-15T18:09:13;37.15;;;20.60;;
12593;SDS011;6362;50.208;9.182;2023-02-15T18:12:00;40.08;;;21.98;;
12593;SDS011;6362;50.208;9.182;2023-02-15T18:14:26;28.38;;;16.65;;
12593;SDS011;6362;50.208;9.182;2023-02-15T18:16:51;27.42;;;16.23;;
12593;SDS011;6362;50.208;9.182;2023-02-15T18:19:20;30.98;;;16.73;;
12593;SDS011;6362;50.208;9.182;2023-02-15T18:21:47;28.58;;;17.30;;
12593;SDS011;6362;50.208;9.182;2023-02-15T18:24:23;27.55;;;16.45;;
12593;SDS011;6362;50.208;9.182;2023-02-15T18:26:53;25.85;;;16.05;;